sensor_id;sensor_type;location;lat;lon;timestamp;pressure;altitude;pressure_sealevel;temperature;humidity
7105;BME280;3594;42.152;24.714;2022-12-11T00:01:59;-24079.22;;;9.39;nan
7105;BME280;3594;42.152;24.714;2022-12-11T00:04:25;-24087.41;;;9.68;nan
7105;BME280;3594;42.152;24.714;2022-12-11T00:06:51;-24075.81;;;9.26;nan
7105;BME280;3594;42.152;24.714;2022-12-11T00:09:18;-24084.44;;;9.57;nan
7105;BME280;3594;42.152;24.714;2022-12-11T00:11:43;-24085.72;;;9.62;nan
7105;BME280;3594;42.152;24.714;2022-12-11T00:14:09;-24086.28;;;9.64;nan
7105;BME280;3594;42.152;24.714;2022-12-11T00:16:34;-24088.25;;;9.71;nan
7105;BME280;3594;42.152;24.714;2022-12-11T00:19:00;-24077.94;;;9.34;nan
7105;BME280;3594;42.152;24.714;2022-12-11T00:21:25;-24074.00;;;9.20;nan
7105;BME280;3594;42.152;24.714;2022-12-11T00:23:51;-24074.84;;;9.23;nan
7105;BME280;3594;42.152;24.714;2022-12-11T00:26:17;-24068.47;;;9.00;nan
7105;BME280;3594;42.152;24.714;2022-12-11T00:28:44;-24074.25;;;9.21;nan
7105;BME280;3594;42.152;24.714;2022-12-11T00:31:15;-24058.72;;;8.65;nan
7105;BME280;3594;42.152;24.714;2022-12-11T00:33:42;-24069.19;;;9.03;nan
7105;BME280;3594;42.152;24.714;2022-12-11T00:36:20;-24055.03;;;8.52;nan
7105;BME280;3594;42.152;24.714;2022-12-11T00:38:46;-24063.38;;;8.82;nan
7105;BME280;3594;42.152;24.714;2022-12-11T00:41:11;-24057.44;;;8.61;nan
7105;BME280;3594;42.152;24.714;2022-12-11T00:43:37;-24062.25;;;8.78;nan
7105;BME280;3594;42.152;24.714;2022-12-11T00:46:03;-24055.88;;;8.55;nan
7105;BME280;3594;42.152;24.714;2022-12-11T00:48:28;-24060.56;;;8.72;nan
7105;BME280;3594;42.152;24.714;2022-12-11T00:50:53;-24059.41;;;8.68;nan
7105;BME280;3594;42.152;24.714;2022-12-11T00:53:19;-24063.53;;;8.82;nan
7105;BME280;3594;42.152;24.714;2022-12-11T00:55:44;-24067.34;;;8.96;nan
7105;BME280;3594;42.152;24.714;2022-12-11T00:58:10;-24060.84;;;8.73;nan
7105;BME280;3594;42.152;24.714;2022-12-11T01:00:37;-24067.34;;;8.96;nan
7105;BME280;3594;42.152;24.714;2022-12-11T01:03:03;-24065.78;;;8.91;nan
7105;BME280;3594;42.152;24.714;2022-12-11T01:05:28;-24079.63;;;9.40;nan
7105;BME280;3594;42.152;24.714;2022-12-11T01:07:54;-24090.81;;;9.80;nan
7105;BME280;3594;42.152;24.714;2022-12-11T01:10:19;-24088.53;;;9.72;nan
7105;BME280;3594;42.152;24.714;2022-12-11T01:12:58;-24089.38;;;9.75;nan
7105;BME280;3594;42.152;24.714;2022-12-11T01:15:29;-24101.25;;;10.17;nan
7105;BME280;3594;42.152;24.714;2022-12-11T01:17:55;-24097.88;;;10.05;nan
7105;BME280;3594;42.152;24.714;2022-12-11T01:20:22;-24091.78;;;9.84;nan
7105;BME280;3594;42.152;24.714;2022-12-11T01:22:51;-24089.94;;;9.77;nan
7105;BME280;3594;42.152;24.714;2022-12-11T01:25:17;-24088.13;;;9.70;nan
7105;BME280;3594;42.152;24.714;2022-12-11T01:27:43;-24098.84;;;10.09;nan
7105;BME280;3594;42.152;24.714;2022-12-11T01:30:09;-24099.00;;;10.09;nan
7105;BME280;3594;42.152;24.714;2022-12-11T01:32:35;-24103.53;;;10.26;nan
7105;BME280;3594;42.152;24.714;2022-12-11T01:35:05;-24098.84;;;10.09;nan
7105;BME280;3594;42.152;24.714;2022-12-11T01:37:32;-24095.03;;;9.95;nan
7105;BME280;3594;42.152;24.714;2022-12-11T01:39:58;-24102.66;;;10.23;nan
7105;BME280;3594;42.152;24.714;2022-12-11T01:42:23;-24096.31;;;10.00;nan
7105;BME280;3594;42.152;24.714;2022-12-11T01:47:15;-24103.22;;;10.25;nan
7105;BME280;3594;42.152;24.714;2022-12-11T01:49:41;-24000.59;;;6.58;nan
7105;BME280;3594;42.152;24.714;2022-12-11T01:52:15;-24095.31;;;9.96;nan
7105;BME280;3594;42.152;24.714;2022-12-11T01:54:44;-24088.41;;;9.71;nan
7105;BME280;3594;42.152;24.714;2022-12-11T01:57:10;-24082.59;;;9.51;nan
7105;BME280;3594;42.152;24.714;2022-12-11T01:59:38;-24072.84;;;9.16;nan
7105;BME280;3594;42.152;24.714;2022-12-11T02:02:08;-24078.94;;;9.38;nan
7105;BME280;3594;42.152;24.714;2022-12-11T02:04:36;-24075.97;;;9.27;nan
7105;BME280;3594;42.152;24.714;2022-12-11T02:07:03;-24016.06;;;7.13;nan
7105;BME280;3594;42.152;24.714;2022-12-11T02:09:30;-24072.84;;;9.16;nan
7105;BME280;3594;42.152;24.714;2022-12-11T02:18:05;-24081.19;;;9.46;nan
7105;BME280;3594;42.152;24.714;2022-12-11T02:26:07;-24086.72;;;9.65;nan
7105;BME280;3594;42.152;24.714;2022-12-11T02:28:37;-24083.88;;;9.55;nan
7105;BME280;3594;42.152;24.714;2022-12-11T02:31:11;-24088.13;;;9.70;nan
7105;BME280;3594;42.152;24.714;2022-12-11T02:33:44;-24080.50;;;9.43;nan
7105;BME280;3594;42.152;24.714;2022-12-11T02:36:11;-24089.38;;;9.75;nan
7105;BME280;3594;42.152;24.714;2022-12-11T02:38:40;-24084.72;;;9.58;nan
7105;BME280;3594;42.152;24.714;2022-12-11T02:41:09;-24092.06;;;9.85;nan
7105;BME280;3594;42.152;24.714;2022-12-11T02:43:36;-24085.56;;;9.61;nan
7105;BME280;3594;42.152;24.714;2022-12-11T02:46:04;-24086.97;;;9.66;nan
7105;BME280;3594;42.152;24.714;2022-12-11T02:48:32;-24091.50;;;9.83;nan
7105;BME280;3594;42.152;24.714;2022-12-11T02:51:00;-24094.19;;;9.92;nan
7105;BME280;3594;42.152;24.714;2022-12-11T02:53:28;-24100.53;;;10.15;nan
7105;BME280;3594;42.152;24.714;2022-12-11T02:56:13;-24106.91;;;10.38;nan
7105;BME280;3594;42.152;24.714;2022-12-11T02:58:46;-24099.56;;;10.11;nan
7105;BME280;3594;42.152;24.714;2022-12-11T03:01:12;-24108.47;;;10.43;nan
7105;BME280;3594;42.152;24.714;2022-12-11T03:03:38;-24105.91;;;10.34;nan
7105;BME280;3594;42.152;24.714;2022-12-11T03:06:03;-24095.75;;;9.98;nan
7105;BME280;3594;42.152;24.714;2022-12-11T03:08:29;-24109.72;;;10.48;nan
7105;BME280;3594;42.152;24.714;2022-12-11T03:10:55;-24083.03;;;9.52;nan
7105;BME280;3594;42.152;24.714;2022-12-11T03:13:21;-24107.31;;;10.39;nan
7105;BME280;3594;42.152;24.714;2022-12-11T03:21:14;-24126.50;;;11.08;nan
7105;BME280;3594;42.152;24.714;2022-12-11T03:23:49;-24133.13;;;11.32;nan
7105;BME280;3594;42.152;24.714;2022-12-11T03:26:19;-24131.59;;;11.26;nan
7105;BME280;3594;42.152;24.714;2022-12-11T03:28:55;-24129.59;;;11.19;nan
7105;BME280;3594;42.152;24.714;2022-12-11T03:31:44;-24133.41;;;11.33;nan
7105;BME280;3594;42.152;24.714;2022-12-11T03:34:15;-24131.03;;;11.24;nan
7105;BME280;3594;42.152;24.714;2022-12-11T03:36:44;-24124.97;;;11.02;nan
7105;BME280;3594;42.152;24.714;2022-12-11T03:39:15;-24122.41;;;10.93;nan
7105;BME280;3594;42.152;24.714;2022-12-11T03:41:44;-24121.56;;;10.90;nan
7105;BME280;3594;42.152;24.714;2022-12-11T03:44:11;-24113.25;;;10.60;nan
7105;BME280;3594;42.152;24.714;2022-12-11T03:46:38;-24111.84;;;10.55;nan
7105;BME280;3594;42.152;24.714;2022-12-11T03:49:09;-24114.66;;;10.66;nan
7105;BME280;3594;42.152;24.714;2022-12-11T03:51:37;-24115.66;;;10.69;nan
7105;BME280;3594;42.152;24.714;2022-12-11T03:54:05;-24116.34;;;10.72;nan
7105;BME280;3594;42.152;24.714;2022-12-11T03:58:57;-24115.66;;;10.69;nan
7105;BME280;3594;42.152;24.714;2022-12-11T04:01:22;-24112.81;;;10.59;nan
7105;BME280;3594;42.152;24.714;2022-12-11T04:03:48;-24111.41;;;10.54;nan
7105;BME280;3594;42.152;24.714;2022-12-11T04:06:13;-24101.13;;;10.17;nan
7105;BME280;3594;42.152;24.714;2022-12-11T04:08:38;-24101.13;;;10.17;nan
7105;BME280;3594;42.152;24.714;2022-12-11T04:11:04;-24104.22;;;10.28;nan
7105;BME280;3594;42.152;24.714;2022-12-11T04:13:48;-24098.00;;;10.06;nan
7105;BME280;3594;42.152;24.714;2022-12-11T04:16:33;-24113.25;;;10.60;nan
7105;BME280;3594;42.152;24.714;2022-12-11T04:18:59;-24113.13;;;10.60;nan
7105;BME280;3594;42.152;24.714;2022-12-11T04:21:43;-24116.50;;;10.72;nan
7105;BME280;3594;42.152;24.714;2022-12-11T04:24:27;-24110.56;;;10.51;nan
7105;BME280;3594;42.152;24.714;2022-12-11T04:26:52;-24105.06;;;10.31;nan
7105;BME280;3594;42.152;24.714;2022-12-11T04:29:17;-24115.66;;;10.69;nan
7105;BME280;3594;42.152;24.714;2022-12-11T04:31:43;-24128.47;;;11.15;nan
7105;BME280;3594;42.152;24.714;2022-12-11T04:34:10;-24129.19;;;11.18;nan
7105;BME280;3594;42.152;24.714;2022-12-11T04:36:37;-24125.66;;;11.05;nan
7105;BME280;3594;42.152;24.714;2022-12-11T04:39:04;-24131.16;;;11.25;nan
7105;BME280;3594;42.152;24.714;2022-12-11T04:41:29;-24127.50;;;11.12;nan
7105;BME280;3594;42.152;24.714;2022-12-11T04:43:55;-24119.47;;;10.83;nan
7105;BME280;3594;42.152;24.714;2022-12-11T04:46:22;-24129.47;;;11.19;nan
7105;BME280;3594;42.152;24.714;2022-12-11T04:48:50;-24121.16;;;10.89;nan
7105;BME280;3594;42.152;24.714;2022-12-11T04:51:16;-24135.25;;;11.39;nan
7105;BME280;3594;42.152;24.714;2022-12-11T04:53:43;-24134.53;;;11.37;nan
7105;BME280;3594;42.152;24.714;2022-12-11T04:56:12;-24123.97;;;10.99;nan
7105;BME280;3594;42.152;24.714;2022-12-11T04:58:39;-24125.38;;;11.04;nan
7105;BME280;3594;42.152;24.714;2022-12-11T05:01:09;-24121.84;;;10.91;nan
7105;BME280;3594;42.152;24.714;2022-12-11T05:03:35;-24114.66;;;10.66;nan
7105;BME280;3594;42.152;24.714;2022-12-11T05:06:01;-24114.09;;;10.63;nan
7105;BME280;3594;42.152;24.714;2022-12-11T05:08:26;-24119.31;;;10.82;nan
7105;BME280;3594;42.152;24.714;2022-12-11T05:11:00;-24117.78;;;10.77;nan
7105;BME280;3594;42.152;24.714;2022-12-11T05:13:29;-24091.22;;;9.82;nan
7105;BME280;3594;42.152;24.714;2022-12-11T05:15:55;-24117.34;;;10.75;nan
7105;BME280;3594;42.152;24.714;2022-12-11T05:18:21;-24117.91;;;10.77;nan
7105;BME280;3594;42.152;24.714;2022-12-11T05:21:00;-24115.78;;;10.70;nan
7105;BME280;3594;42.152;24.714;2022-12-11T05:23:26;-24115.09;;;10.67;nan
7105;BME280;3594;42.152;24.714;2022-12-11T05:25:57;-24116.91;;;10.74;nan
7105;BME280;3594;42.152;24.714;2022-12-11T05:28:24;-24112.13;;;10.56;nan
7105;BME280;3594;42.152;24.714;2022-12-11T05:30:57;-24109.72;;;10.48;nan
7105;BME280;3594;42.152;24.714;2022-12-11T05:33:23;-24115.78;;;10.70;nan
7105;BME280;3594;42.152;24.714;2022-12-11T05:35:49;-24113.41;;;10.61;nan
7105;BME280;3594;42.152;24.714;2022-12-11T05:38:14;-24117.34;;;10.75;nan
7105;BME280;3594;42.152;24.714;2022-12-11T05:40:40;-24109.59;;;10.47;nan
7105;BME280;3594;42.152;24.714;2022-12-11T05:43:05;-24115.78;;;10.70;nan
7105;BME280;3594;42.152;24.714;2022-12-11T05:45:31;-24104.50;;;10.29;nan
7105;BME280;3594;42.152;24.714;2022-12-11T05:47:56;-24108.16;;;10.42;nan
7105;BME280;3594;42.152;24.714;2022-12-11T05:50:21;-24102.66;;;10.23;nan
7105;BME280;3594;42.152;24.714;2022-12-11T05:52:47;-24099.69;;;10.12;nan
7105;BME280;3594;42.152;24.714;2022-12-11T05:55:12;-24108.31;;;10.43;nan
7105;BME280;3594;42.152;24.714;2022-12-11T05:57:38;-24108.03;;;10.42;nan
7105;BME280;3594;42.152;24.714;2022-12-11T06:00:04;-24101.69;;;10.19;nan
7105;BME280;3594;42.152;24.714;2022-12-11T06:02:30;-24108.16;;;10.42;nan
7105;BME280;3594;42.152;24.714;2022-12-11T06:04:55;-24094.63;;;9.94;nan
7105;BME280;3594;42.152;24.714;2022-12-11T06:07:21;-24102.53;;;10.22;nan
7105;BME280;3594;42.152;24.714;2022-12-11T06:09:46;-24111.56;;;10.54;nan
7105;BME280;3594;42.152;24.714;2022-12-11T06:12:11;-24115.38;;;10.68;nan
7105;BME280;3594;42.152;24.714;2022-12-11T06:14:37;-24115.94;;;10.70;nan
7105;BME280;3594;42.152;24.714;2022-12-11T06:17:02;-24117.78;;;10.77;nan
7105;BME280;3594;42.152;24.714;2022-12-11T06:19:28;-24117.78;;;10.77;nan
7105;BME280;3594;42.152;24.714;2022-12-11T06:21:53;-24118.34;;;10.79;nan
7105;BME280;3594;42.152;24.714;2022-12-11T06:24:19;-24111.56;;;10.54;nan
7105;BME280;3594;42.152;24.714;2022-12-11T06:26:44;-24112.56;;;10.58;nan
7105;BME280;3594;42.152;24.714;2022-12-11T06:29:10;-24116.22;;;10.71;nan
7105;BME280;3594;42.152;24.714;2022-12-11T06:31:35;-24126.38;;;11.07;nan
7105;BME280;3594;42.152;24.714;2022-12-11T06:34:00;-24121.00;;;10.88;nan
7105;BME280;3594;42.152;24.714;2022-12-11T06:36:26;-24098.72;;;10.08;nan
7105;BME280;3594;42.152;24.714;2022-12-11T06:38:52;-24125.09;;;11.03;nan
7105;BME280;3594;42.152;24.714;2022-12-11T06:41:19;-24121.16;;;10.89;nan
7105;BME280;3594;42.152;24.714;2022-12-11T06:43:45;-24132.72;;;11.30;nan
7105;BME280;3594;42.152;24.714;2022-12-11T06:46:16;-24138.22;;;11.50;nan
7105;BME280;3594;42.152;24.714;2022-12-11T06:48:42;-24143.97;;;11.71;nan
7105;BME280;3594;42.152;24.714;2022-12-11T06:51:16;-24143.97;;;11.71;nan
7105;BME280;3594;42.152;24.714;2022-12-11T06:53:42;-24138.78;;;11.52;nan
7105;BME280;3594;42.152;24.714;2022-12-11T06:56:13;-24138.34;;;11.50;nan
7105;BME280;3594;42.152;24.714;2022-12-11T06:58:40;-24148.06;;;11.85;nan
7105;BME280;3594;42.152;24.714;2022-12-11T07:01:20;-24150.47;;;11.94;nan
7105;BME280;3594;42.152;24.714;2022-12-11T07:03:46;-24149.06;;;11.89;nan
7105;BME280;3594;42.152;24.714;2022-12-11T07:06:12;-24149.63;;;11.91;nan
7105;BME280;3594;42.152;24.714;2022-12-11T07:08:38;-24145.69;;;11.77;nan
7105;BME280;3594;42.152;24.714;2022-12-11T07:11:09;-24151.03;;;11.96;nan
7105;BME280;3594;42.152;24.714;2022-12-11T07:13:35;-24157.38;;;12.19;nan
7105;BME280;3594;42.152;24.714;2022-12-11T07:16:01;-24154.53;;;12.09;nan
7105;BME280;3594;42.152;24.714;2022-12-11T07:18:29;-24155.81;;;12.13;nan
7105;BME280;3594;42.152;24.714;2022-12-11T07:20:57;-24154.13;;;12.07;nan
7105;BME280;3594;42.152;24.714;2022-12-11T07:23:24;-24157.66;;;12.20;nan
7105;BME280;3594;42.152;24.714;2022-12-11T07:25:49;-24160.59;;;12.30;nan
7105;BME280;3594;42.152;24.714;2022-12-11T07:28:15;-24161.31;;;12.33;nan
7105;BME280;3594;42.152;24.714;2022-12-11T07:30:40;-24161.72;;;12.34;nan
7105;BME280;3594;42.152;24.714;2022-12-11T07:33:05;-24160.03;;;12.28;nan
7105;BME280;3594;42.152;24.714;2022-12-11T07:35:33;-24170.16;;;12.65;nan
7105;BME280;3594;42.152;24.714;2022-12-11T07:37:59;-24167.06;;;12.54;nan
7105;BME280;3594;42.152;24.714;2022-12-11T07:40:25;-24173.25;;;12.76;nan
7105;BME280;3594;42.152;24.714;2022-12-11T07:42:50;-24179.31;;;12.98;nan
7105;BME280;3594;42.152;24.714;2022-12-11T07:45:16;-24178.47;;;12.95;nan
7105;BME280;3594;42.152;24.714;2022-12-11T07:47:41;-24182.69;;;13.10;nan
7105;BME280;3594;42.152;24.714;2022-12-11T07:50:07;-24189.72;;;13.35;nan
7105;BME280;3594;42.152;24.714;2022-12-11T07:52:33;-24190.13;;;13.37;nan
7105;BME280;3594;42.152;24.714;2022-12-11T07:54:58;-24186.47;;;13.23;nan
7105;BME280;3594;42.152;24.714;2022-12-11T07:57:24;-24191.81;;;13.43;nan
7105;BME280;3594;42.152;24.714;2022-12-11T07:59:50;-24182.53;;;13.09;nan
7105;BME280;3594;42.152;24.714;2022-12-11T08:02:15;-24182.69;;;13.10;nan
7105;BME280;3594;42.152;24.714;2022-12-11T08:04:41;-24191.66;;;13.42;nan
7105;BME280;3594;42.152;24.714;2022-12-11T08:07:06;-24192.25;;;13.44;nan
7105;BME280;3594;42.152;24.714;2022-12-11T08:09:32;-24188.72;;;13.32;nan
7105;BME280;3594;42.152;24.714;2022-12-11T08:11:57;-24186.47;;;13.23;nan
7105;BME280;3594;42.152;24.714;2022-12-11T08:14:23;-24196.03;;;13.58;nan
7105;BME280;3594;42.152;24.714;2022-12-11T08:16:48;-24199.41;;;13.70;nan
7105;BME280;3594;42.152;24.714;2022-12-11T08:19:14;-24202.91;;;13.83;nan
7105;BME280;3594;42.152;24.714;2022-12-11T08:21:40;-24193.63;;;13.49;nan
7105;BME280;3594;42.152;24.714;2022-12-11T08:24:07;-24208.53;;;14.03;nan
7105;BME280;3594;42.152;24.714;2022-12-11T08:26:33;-24220.16;;;14.45;nan
7105;BME280;3594;42.152;24.714;2022-12-11T08:28:59;-24215.41;;;14.28;nan
7105;BME280;3594;42.152;24.714;2022-12-11T08:31:25;-24216.38;;;14.31;nan
7105;BME280;3594;42.152;24.714;2022-12-11T08:33:54;-24218.47;;;14.39;nan
7105;BME280;3594;42.152;24.714;2022-12-11T08:36:21;-24230.25;;;14.81;nan
7105;BME280;3594;42.152;24.714;2022-12-11T08:38:47;-24231.09;;;14.84;nan
7105;BME280;3594;42.152;24.714;2022-12-11T08:41:18;-24226.91;;;14.69;nan
7105;BME280;3594;42.152;24.714;2022-12-11T08:43:44;-24244.41;;;15.32;nan
7105;BME280;3594;42.152;24.714;2022-12-11T08:46:10;-24248.34;;;15.46;nan
7105;BME280;3594;42.152;24.714;2022-12-11T08:48:36;-24256.31;;;15.75;nan
7105;BME280;3594;42.152;24.714;2022-12-11T08:51:04;-24262.47;;;15.98;nan
7105;BME280;3594;42.152;24.714;2022-12-11T08:53:30;-24272.25;;;16.33;nan
7105;BME280;3594;42.152;24.714;2022-12-11T08:56:05;-24277.72;;;16.53;nan
7105;BME280;3594;42.152;24.714;2022-12-11T08:58:31;-24282.19;;;16.69;nan
7105;BME280;3594;42.152;24.714;2022-12-11T09:00:57;-24284.69;;;16.78;nan
7105;BME280;3594;42.152;24.714;2022-12-11T09:03:23;-24278.00;;;16.54;nan
7105;BME280;3594;42.152;24.714;2022-12-11T09:05:49;-24280.94;;;16.64;nan
7105;BME280;3594;42.152;24.714;2022-12-11T09:08:15;-24293.09;;;17.08;nan
7105;BME280;3594;42.152;24.714;2022-12-11T09:10:40;-24294.06;;;17.12;nan
7105;BME280;3594;42.152;24.714;2022-12-11T09:13:06;-24292.25;;;17.05;nan
7105;BME280;3594;42.152;24.714;2022-12-11T09:15:31;-24298.94;;;17.30;nan
7105;BME280;3594;42.152;24.714;2022-12-11T09:17:57;-24292.09;;;17.05;nan
7105;BME280;3594;42.152;24.714;2022-12-11T09:20:22;-24293.22;;;17.09;nan
7105;BME280;3594;42.152;24.714;2022-12-11T09:22:47;-24296.28;;;17.20;nan
7105;BME280;3594;42.152;24.714;2022-12-11T09:25:13;-24290.16;;;16.98;nan
7105;BME280;3594;42.152;24.714;2022-12-11T09:27:38;-24288.47;;;16.92;nan
7105;BME280;3594;42.152;24.714;2022-12-11T09:30:04;-24287.22;;;16.87;nan
7105;BME280;3594;42.152;24.714;2022-12-11T09:32:30;-24287.63;;;16.89;nan
7105;BME280;3594;42.152;24.714;2022-12-11T09:34:55;-24288.19;;;16.91;nan
7105;BME280;3594;42.152;24.714;2022-12-11T09:37:21;-24287.91;;;16.90;nan
7105;BME280;3594;42.152;24.714;2022-12-11T09:39:46;-24283.44;;;16.73;nan
7105;BME280;3594;42.152;24.714;2022-12-11T09:45:03;-24295.59;;;17.17;nan
7105;BME280;3594;42.152;24.714;2022-12-11T09:47:40;-24297.00;;;17.22;nan
7105;BME280;3594;42.152;24.714;2022-12-11T09:55:21;-24312.06;;;17.77;nan
7105;BME280;3594;42.152;24.714;2022-12-11T10:00:27;-24298.25;;;17.27;nan
7105;BME280;3594;42.152;24.714;2022-12-11T10:09:09;-24313.19;;;17.81;nan
7105;BME280;3594;42.152;24.714;2022-12-11T10:16:57;-24312.19;;;17.78;nan
7105;BME280;3594;42.152;24.714;2022-12-11T10:19:29;-24315.13;;;17.88;nan
7105;BME280;3594;42.152;24.714;2022-12-11T10:21:56;-24324.59;;;18.23;nan
7105;BME280;3594;42.152;24.714;2022-12-11T10:24:24;-24324.19;;;18.21;nan
7105;BME280;3594;42.152;24.714;2022-12-11T10:26:57;-24327.81;;;18.34;nan
7105;BME280;3594;42.152;24.714;2022-12-11T10:29:24;-24323.91;;;18.20;nan
7105;BME280;3594;42.152;24.714;2022-12-11T10:31:59;-24332.13;;;18.50;nan
7105;BME280;3594;42.152;24.714;2022-12-11T10:34:36;-24331.28;;;18.47;nan
7105;BME280;3594;42.152;24.714;2022-12-11T10:37:04;-24331.00;;;18.46;nan
7105;BME280;3594;42.152;24.714;2022-12-11T10:39:29;-24328.66;;;18.37;nan
7105;BME280;3594;42.152;24.714;2022-12-11T10:41:55;-24331.28;;;18.47;nan
7105;BME280;3594;42.152;24.714;2022-12-11T10:46:59;-24335.63;;;18.63;nan
7105;BME280;3594;42.152;24.714;2022-12-11T10:49:30;-24338.97;;;18.75;nan
7105;BME280;3594;42.152;24.714;2022-12-11T10:51:57;-24347.72;;;19.07;nan
7105;BME280;3594;42.152;24.714;2022-12-11T10:54:35;-24349.53;;;19.13;nan
7105;BME280;3594;42.152;24.714;2022-12-11T10:57:06;-24351.47;;;19.20;nan
7105;BME280;3594;42.152;24.714;2022-12-11T10:59:37;-24353.16;;;19.26;nan
7105;BME280;3594;42.152;24.714;2022-12-11T11:02:05;-24351.06;;;19.19;nan
7105;BME280;3594;42.152;24.714;2022-12-11T11:04:35;-24354.13;;;19.30;nan
7105;BME280;3594;42.152;24.714;2022-12-11T11:07:22;-24354.69;;;19.32;nan
7105;BME280;3594;42.152;24.714;2022-12-11T11:09:50;-24345.38;;;18.98;nan
7105;BME280;3594;42.152;24.714;2022-12-11T11:12:18;-24347.31;;;19.05;nan
7105;BME280;3594;42.152;24.714;2022-12-11T11:14:44;-24337.28;;;18.69;nan
7105;BME280;3594;42.152;24.714;2022-12-11T11:17:14;-24340.34;;;18.80;nan
7105;BME280;3594;42.152;24.714;2022-12-11T11:19:40;-24337.44;;;18.69;nan
7105;BME280;3594;42.152;24.714;2022-12-11T11:22:13;-24333.53;;;18.55;nan
7105;BME280;3594;42.152;24.714;2022-12-11T11:24:59;-24324.34;;;18.22;nan
7105;BME280;3594;42.152;24.714;2022-12-11T11:27:31;-24323.06;;;18.17;nan
7105;BME280;3594;42.152;24.714;2022-12-11T11:30:09;-24328.50;;;18.37;nan
7105;BME280;3594;42.152;24.714;2022-12-11T11:32:42;-24319.31;;;18.03;nan
7105;BME280;3594;42.152;24.714;2022-12-11T11:37:37;-24320.56;;;18.08;nan
7105;BME280;3594;42.152;24.714;2022-12-11T11:40:17;-24327.53;;;18.33;nan
7105;BME280;3594;42.152;24.714;2022-12-11T11:42:57;-24326.00;;;18.28;nan
7105;BME280;3594;42.152;24.714;2022-12-11T11:45:34;-24329.47;;;18.40;nan
7105;BME280;3594;42.152;24.714;2022-12-11T11:50:43;-24331.72;;;18.48;nan
7105;BME280;3594;42.152;24.714;2022-12-11T11:53:15;-24328.50;;;18.37;nan
7105;BME280;3594;42.152;24.714;2022-12-11T11:58:51;-24337.16;;;18.68;nan
7105;BME280;3594;42.152;24.714;2022-12-11T12:01:20;-24336.44;;;18.66;nan
7105;BME280;3594;42.152;24.714;2022-12-11T12:03:46;-24333.81;;;18.56;nan
7105;BME280;3594;42.152;24.714;2022-12-11T12:06:43;-24335.63;;;18.63;nan
7105;BME280;3594;42.152;24.714;2022-12-11T12:15:15;-24328.94;;;18.38;nan
7105;BME280;3594;42.152;24.714;2022-12-11T12:17:57;-24333.13;;;18.53;nan
7105;BME280;3594;42.152;24.714;2022-12-11T12:25:42;-24338.97;;;18.75;nan
7105;BME280;3594;42.152;24.714;2022-12-11T12:28:31;-24347.31;;;19.05;nan
7105;BME280;3594;42.152;24.714;2022-12-11T12:31:16;-24332.13;;;18.50;nan
7105;BME280;3594;42.152;24.714;2022-12-11T12:39:23;-24333.13;;;18.53;nan
7105;BME280;3594;42.152;24.714;2022-12-11T12:41:58;-24320.56;;;18.08;nan
7105;BME280;3594;42.152;24.714;2022-12-11T12:44:30;-24322.81;;;18.16;nan
7105;BME280;3594;42.152;24.714;2022-12-11T12:47:09;-24321.25;;;18.10;nan
7105;BME280;3594;42.152;24.714;2022-12-11T12:49:40;-24324.75;;;18.23;nan
7105;BME280;3594;42.152;24.714;2022-12-11T12:52:18;-24309.97;;;17.70;nan
7105;BME280;3594;42.152;24.714;2022-12-11T12:54:47;-24322.94;;;18.17;nan
7105;BME280;3594;42.152;24.714;2022-12-11T12:57:34;-24321.25;;;18.10;nan
7105;BME280;3594;42.152;24.714;2022-12-11T13:00:01;-24328.94;;;18.38;nan
7105;BME280;3594;42.152;24.714;2022-12-11T13:02:27;-24322.09;;;18.14;nan
7105;BME280;3594;42.152;24.714;2022-12-11T13:05:05;-24320.84;;;18.09;nan
7105;BME280;3594;42.152;24.714;2022-12-11T13:07:32;-24320.28;;;18.07;nan
7105;BME280;3594;42.152;24.714;2022-12-11T13:12:45;-24324.06;;;18.21;nan
7105;BME280;3594;42.152;24.714;2022-12-11T13:17:59;-24313.03;;;17.81;nan
7105;BME280;3594;42.152;24.714;2022-12-11T13:20:28;-24304.09;;;17.48;nan
7105;BME280;3594;42.152;24.714;2022-12-11T13:23:17;-24314.28;;;17.85;nan
7105;BME280;3594;42.152;24.714;2022-12-11T13:25:51;-24318.91;;;18.02;nan
7105;BME280;3594;42.152;24.714;2022-12-11T13:28:23;-24307.03;;;17.59;nan
7105;BME280;3594;42.152;24.714;2022-12-11T13:33:22;-24317.50;;;17.97;nan
7105;BME280;3594;42.152;24.714;2022-12-11T13:36:03;-24314.44;;;17.86;nan
7105;BME280;3594;42.152;24.714;2022-12-11T13:38:30;-24311.22;;;17.74;nan
7105;BME280;3594;42.152;24.714;2022-12-11T13:40:56;-24324.19;;;18.21;nan
7105;BME280;3594;42.152;24.714;2022-12-11T13:43:31;-24316.94;;;17.95;nan
7105;BME280;3594;42.152;24.714;2022-12-11T13:45:59;-24317.78;;;17.98;nan
7105;BME280;3594;42.152;24.714;2022-12-11T13:48:28;-24306.91;;;17.58;nan
7105;BME280;3594;42.152;24.714;2022-12-11T13:50:58;-24304.53;;;17.50;nan
7105;BME280;3594;42.152;24.714;2022-12-11T13:53:24;-24301.59;;;17.39;nan
7105;BME280;3594;42.152;24.714;2022-12-11T13:56:01;-24306.91;;;17.58;nan
7105;BME280;3594;42.152;24.714;2022-12-11T13:58:27;-24299.91;;;17.33;nan
7105;BME280;3594;42.152;24.714;2022-12-11T14:01:06;-24308.72;;;17.65;nan
7105;BME280;3594;42.152;24.714;2022-12-11T14:03:35;-24303.13;;;17.45;nan
7105;BME280;3594;42.152;24.714;2022-12-11T14:06:01;-24301.19;;;17.38;nan
7105;BME280;3594;42.152;24.714;2022-12-11T14:08:32;-24289.03;;;16.94;nan
7105;BME280;3594;42.152;24.714;2022-12-11T14:10:59;-24293.09;;;17.08;nan
7105;BME280;3594;42.152;24.714;2022-12-11T14:13:32;-24296.00;;;17.19;nan
7105;BME280;3594;42.152;24.714;2022-12-11T14:15:58;-24304.66;;;17.50;nan
7105;BME280;3594;42.152;24.714;2022-12-11T14:18:26;-24300.34;;;17.35;nan
7105;BME280;3594;42.152;24.714;2022-12-11T14:21:02;-24286.94;;;16.86;nan
7105;BME280;3594;42.152;24.714;2022-12-11T14:23:33;-24278.97;;;16.57;nan
7105;BME280;3594;42.152;24.714;2022-12-11T14:26:02;-24081.34;;;9.46;nan
7105;BME280;3594;42.152;24.714;2022-12-11T14:28:34;-24279.81;;;16.60;nan
7105;BME280;3594;42.152;24.714;2022-12-11T14:31:01;-24279.94;;;16.61;nan
7105;BME280;3594;42.152;24.714;2022-12-11T14:33:31;-24278.53;;;16.56;nan
7105;BME280;3594;42.152;24.714;2022-12-11T14:35:59;-24281.78;;;16.67;nan
7105;BME280;3594;42.152;24.714;2022-12-11T14:38:29;-24280.94;;;16.64;nan
7105;BME280;3594;42.152;24.714;2022-12-11T14:41:04;-24284.84;;;16.78;nan
7105;BME280;3594;42.152;24.714;2022-12-11T14:43:36;-24284.28;;;16.76;nan
7105;BME280;3594;42.152;24.714;2022-12-11T14:46:23;-24288.47;;;16.92;nan
7105;BME280;3594;42.152;24.714;2022-12-11T14:48:54;-24286.22;;;16.84;nan
7105;BME280;3594;42.152;24.714;2022-12-11T14:51:22;-24276.88;;;16.50;nan
7105;BME280;3594;42.152;24.714;2022-12-11T14:53:49;-24285.25;;;16.80;nan